Terminal Aerodrome Forecast
Issued by NWS Billings, MT

Home | Current Version | Previous Version | Text Only | Print | Product List | Glossary Off
Versions: 1 2 3 4 5 6 7 8 9 10 11 12 13 14 15 16 17 18 19 20 21 22 23 24 25 26 27 28

809
FTUS45 KBYZ 081725
TAFMLS
TAF
KMLS 081725Z 0818/0918 30014KT P6SM SCT250 WS020/32040KT
     FM082000 31016G24KT P6SM FEW250
     FM082300 29010KT P6SM FEW250=

USA.gov is the U.S. government's official web portal to all federal, state and local government web resources and services.